Time;durP1;ratioP1;P1;durP2;ratioP2;P2;SDS_P1;SDS_P2;PMS_P1;PMS_P2;Temp;Humidity;BMP_temperature;BMP_pressure;BME280_temperature;BME280_humidity;BME280_pressure;Samples;Min_cycle;Max_cycle;Signal;HPM_P1;HPM_P2
2022/06/15 00:01:19;;;;;;;619.80;590.15;;;18.30;98.50;;;18.45;67.02;99884.78;5009244;28;20229;-63
2022/06/15 00:03:49;;;;;;;620.92;592.08;;;18.20;99.30;;;18.39;66.62;99881.44;5016674;28;20198;-63
2022/06/15 00:06:26;;;;;;;637.72;606.78;;;18.20;99.20;;;18.37;66.66;99880.59;5027430;28;20198;-64
2022/06/15 00:08:58;;;;;;;662.45;630.65;;;18.20;99.50;;;18.36;67.56;99895.78;5012630;28;20202;-64
2022/06/15 00:11:31;;;;;;;652.75;621.13;;;18.10;99.90;;;18.37;67.70;99905.56;5007722;28;20277;-63
2022/06/15 00:14:04;;;;;;;674.80;641.47;;;18.10;99.90;;;18.29;68.05;99906.72;5027004;28;20214;-63
2022/06/15 00:16:32;;;;;;;699.10;665.05;;;18.10;99.90;;;18.36;66.90;99906.50;5019541;28;20210;-63
2022/06/15 00:19:02;;;;;;;656.55;624.38;;;18.00;99.90;;;18.36;67.75;99916.31;5043918;28;20198;-62
2022/06/15 00:21:31;;;;;;;663.47;631.67;;;18.10;99.90;;;18.31;67.80;99924.50;5011517;28;20234;-61
2022/06/15 00:23:59;;;;;;;681.28;647.95;;;18.10;99.90;;;18.13;68.32;99912.53;5025626;28;20197;-62
2022/06/15 00:26:28;;;;;;;715.78;680.67;;;18.00;99.90;;;18.10;68.77;99914.41;5012472;28;20206;-63
2022/06/15 00:28:56;;;;;;;714.00;678.75;;;17.90;99.90;;;18.00;68.99;99915.59;5024423;28;20213;-63
2022/06/15 00:31:24;;;;;;;742.35;704.92;;;17.90;99.90;;;18.03;68.56;99934.25;5006041;28;20701;-61
2022/06/15 00:33:52;;;;;;;742.35;704.75;;;17.90;99.90;;;17.99;68.97;99944.16;5014457;28;20202;-63
2022/06/15 00:36:22;;;;;;;759.92;720.47;;;17.80;99.90;;;18.02;69.34;99957.44;5009083;28;20679;-63
2022/06/15 00:38:57;;;;;;;750.95;712.45;;;17.80;99.90;;;18.04;69.55;99971.66;5011104;28;20217;-63
2022/06/15 00:41:36;;;;;;;748.55;709.83;;;17.70;99.90;;;17.98;69.20;99960.25;5023865;28;20241;-63
2022/06/15 00:44:19;;;;;;;757.15;718.60;;;17.80;99.90;;;17.96;68.94;99971.00;4995591;28;20205;-63
2022/06/15 00:46:56;;;;;;;751.92;713.60;;;17.80;99.90;;;17.99;68.68;99978.06;5023594;28;20210;-63
2022/06/15 00:49:47;;;;;;;759.58;720.00;;;17.70;99.90;;;17.93;68.65;99965.75;5043413;28;20198;-63
2022/06/15 00:52:28;;;;;;;751.22;712.22;;;17.60;99.90;;;17.96;68.28;99968.31;5057058;28;20230;-63
2022/06/15 00:54:56;;;;;;;754.85;715.17;;;17.60;99.90;;;17.84;68.63;99957.97;5013559;28;20202;-64
2022/06/15 00:57:26;;;;;;;743.05;705.67;;;17.60;99.90;;;17.81;69.59;99969.63;5024815;28;20225;-61
2022/06/15 00:59:58;;;;;;;747.17;708.92;;;17.60;99.90;;;17.82;68.98;99975.88;4997956;28;20224;-63
2022/06/15 01:02:27;;;;;;;742.78;704.95;;;17.50;99.90;;;17.83;69.01;99981.16;5006952;28;20241;-63
2022/06/15 01:05:47;;;;;;;736.20;698.95;;;17.60;99.90;;;17.75;69.32;99966.25;5031764;28;20210;-63
2022/06/15 01:08:55;;;;;;;763.00;721.50;;;17.40;99.90;;;17.68;69.55;99962.88;5025146;28;20201;-63
2022/06/15 01:12:07;;;;;;;742.63;704.47;;;17.40;99.90;;;17.55;69.96;99967.63;5009124;28;20222;-60
2022/06/15 01:15:37;;;;;;;721.60;684.90;;;17.30;99.90;;;17.45;71.54;99978.63;5021196;28;20206;-63
2022/06/15 01:18:55;;;;;;;685.85;652.10;;;17.20;99.90;;;17.42;71.46;99986.72;5013059;28;20205;-63
2022/06/15 01:22:11;;;;;;;680.40;647.42;;;17.20;99.90;;;17.42;72.20;100013.44;5002116;28;20221;-63
2022/06/15 01:25:55;;;;;;;692.78;658.33;;;17.20;99.90;;;17.19;73.13;100008.69;5068258;28;20570;-63
2022/06/15 01:28:42;;;;;;;690.95;655.97;;;17.00;99.90;;;17.20;72.59;100011.31;4996985;28;20217;-63
2022/06/15 01:31:42;;;;;;;658.60;624.35;;;17.00;99.90;;;17.12;72.81;100007.97;5032586;28;20224;-63
2022/06/15 01:34:32;;;;;;;629.38;599.03;;;17.00;99.90;;;16.87;74.81;100017.44;5041694;28;20205;-63
2022/06/15 01:37:29;;;;;;;639.45;608.30;;;16.90;99.90;;;16.69;76.59;100033.88;5027444;28;20646;-64
2022/06/15 01:40:07;;;;;;;625.00;595.28;;;16.80;99.90;;;16.80;76.27;100050.53;5022059;28;20210;-63
2022/06/15 01:42:43;;;;;;;629.78;599.58;;;16.70;99.90;;;16.82;74.94;100054.06;5010765;28;20230;-64
2022/06/15 01:45:19;;;;;;;625.97;596.38;;;16.70;99.90;;;16.78;75.35;100063.94;5030079;28;20201;-61
2022/06/15 01:47:50;;;;;;;643.58;612.22;;;16.70;99.90;;;16.64;76.55;100064.19;5044464;28;20206;-64
2022/06/15 01:50:35;;;;;;;642.85;611.90;;;16.60;99.90;;;16.74;76.09;100075.59;5036052;28;20212;-63
2022/06/15 01:53:37;;;;;;;638.17;607.72;;;16.60;99.90;;;16.87;74.84;100106.44;5004666;28;20202;-64
2022/06/15 01:56:33;;;;;;;619.55;589.20;;;16.70;99.90;;;16.77;75.01;100094.22;5028672;28;20212;-64
2022/06/15 01:59:18;;;;;;;624.30;594.22;;;16.60;99.90;;;16.70;75.41;100089.03;5031842;28;20608;-63
2022/06/15 02:02:35;;;;;;;638.05;606.95;;;16.60;99.90;;;16.63;76.05;100109.63;5000220;28;20236;-62
2022/06/15 02:05:22;;;;;;;624.03;593.67;;;16.50;99.90;;;16.55;76.38;100104.44;4946104;28;20224;-62
2022/06/15 02:08:32;;;;;;;619.03;589.90;;;16.50;99.90;;;16.47;76.76;100101.03;5021496;28;20198;-62
2022/06/15 02:11:32;;;;;;;626.83;596.35;;;16.40;99.90;;;16.29;77.00;100096.06;5027570;28;20233;-63
2022/06/15 02:14:30;;;;;;;621.38;591.38;;;16.30;99.90;;;16.39;77.04;100121.66;5017546;28;20573;-63
2022/06/15 02:17:24;;;;;;;611.67;582.47;;;16.20;99.90;;;16.34;76.62;100118.22;5037352;28;20210;-62
2022/06/15 02:20:05;;;;;;;565.92;539.35;;;15.10;99.90;;;16.36;76.06;100113.72;5039466;28;20563;-63
2022/06/15 02:22:40;;;;;;;554.95;529.13;;;16.10;99.90;;;16.37;76.60;100136.84;5030462;28;20734;-63
2022/06/15 02:25:18;;;;;;;558.75;533.00;;;16.10;99.90;;;16.32;77.10;100136.91;5022237;28;20208;-63
2022/06/15 02:27:50;;;;;;;552.28;527.63;;;16.10;99.90;;;16.10;77.84;100132.00;5024297;28;20220;-62
2022/06/15 02:30:25;;;;;;;573.03;546.58;;;16.00;99.90;;;16.18;78.23;100144.31;5028551;28;20209;-62
2022/06/15 02:33:30;;;;;;;595.65;565.42;;;16.00;99.90;;;16.17;76.93;100141.66;5010048;28;20241;-63
2022/06/15 02:36:02;;;;;;;572.80;545.28;;;15.90;99.90;;;16.09;78.29;100141.81;5015579;28;20215;-63
2022/06/15 02:38:32;;;;;;;541.20;516.22;;;15.90;99.90;;;16.07;78.04;100143.63;5030887;28;20198;-62
2022/06/15 02:41:02;;;;;;;539.72;513.55;;;15.90;99.90;;;16.12;77.53;100160.44;5001041;28;20225;-63
2022/06/15 02:43:31;;;;;;;523.40;498.50;;;15.90;99.90;;;16.09;77.36;100152.47;5029203;28;20221;-63
2022/06/15 02:46:02;;;;;;;514.55;490.73;;;15.80;99.90;;;16.00;78.87;100169.53;5043496;28;20245;-63
2022/06/15 02:48:36;;;;;;;534.50;508.98;;;15.90;99.90;;;15.98;78.57;100181.13;5032110;28;20198;-63
2022/06/15 02:51:07;;;;;;;519.28;495.35;;;15.80;99.90;;;15.88;78.03;100164.41;5016593;28;20236;-63
2022/06/15 02:53:42;;;;;;;500.52;477.23;;;15.80;99.90;;;15.85;79.18;100174.25;5018840;28;20213;-63
2022/06/15 02:56:13;;;;;;;506.13;482.83;;;15.70;99.90;;;15.77;80.60;100198.34;5018879;28;20566;-63
2022/06/15 02:58:46;;;;;;;504.17;481.23;;;15.70;99.90;;;15.64;83.05;100227.00;5034872;28;20520;-63
2022/06/15 03:01:16;;;;;;;522.00;496.77;;;15.60;99.90;;;15.61;83.52;100244.81;4988718;28;20228;-63
2022/06/15 03:03:48;;;;;;;514.67;491.33;;;15.60;99.90;;;15.59;83.27;100255.47;5035784;28;20213;-63
2022/06/15 03:06:27;;;;;;;531.25;505.77;;;15.50;99.90;;;15.64;82.05;100260.78;5030077;28;20206;-63
2022/06/15 03:09:07;;;;;;;535.17;510.23;;;15.50;99.90;;;15.70;81.27;100266.00;5040575;28;20202;-63
2022/06/15 03:11:48;;;;;;;509.52;487.92;;;15.50;99.90;;;15.41;83.11;100257.47;5048124;28;20233;-61
2022/06/15 03:14:22;;;;;;;540.60;515.50;;;15.40;99.90;;;15.48;83.81;100280.47;5019634;28;20198;-63
2022/06/15 03:16:53;;;;;;;542.05;516.75;;;15.40;99.90;;;15.35;85.05;100290.41;5013797;28;20209;-63
2022/06/15 03:19:23;;;;;;;527.72;502.95;;;15.30;99.90;;;15.24;85.88;100295.00;5006033;28;20198;-63
2022/06/15 03:22:00;;;;;;;529.25;505.80;;;15.30;99.90;;;15.38;84.68;100312.56;5001442;28;20245;-62
2022/06/15 03:24:31;;;;;;;532.67;508.67;;;15.20;99.90;;;15.52;82.73;100322.16;5029290;28;20557;-62
2022/06/15 03:26:59;;;;;;;552.00;526.13;;;15.30;99.90;;;15.48;83.19;100316.00;5013684;28;20202;-63
2022/06/15 03:29:31;;;;;;;579.58;552.28;;;15.30;99.90;;;15.55;82.26;100314.13;5037145;28;20198;-63
2022/06/15 03:32:05;;;;;;;615.72;584.22;;;15.30;99.90;;;15.58;82.25;100320.34;5011117;28;20233;-62
2022/06/15 03:34:44;;;;;;;609.33;579.35;;;15.30;99.90;;;15.60;80.36;100313.25;5023230;28;20206;-63
2022/06/15 03:37:12;;;;;;;567.63;539.88;;;15.30;99.90;;;15.54;81.14;100299.94;5004513;28;20212;-63
2022/06/15 03:39:43;;;;;;;518.42;494.65;;;15.30;99.90;;;15.52;81.38;100300.84;5021324;28;20217;-63
2022/06/15 03:42:20;;;;;;;511.58;488.13;;;15.30;99.90;;;15.47;81.88;100300.03;5024977;28;20628;-62
2022/06/15 03:44:50;;;;;;;497.35;475.98;;;15.20;99.90;;;15.51;81.02;100305.31;5026949;28;20197;-62
2022/06/15 03:47:22;;;;;;;474.30;453.70;;;15.30;99.90;;;15.53;81.79;100322.16;5044597;28;20202;-63
2022/06/15 03:49:53;;;;;;;461.15;440.98;;;15.20;99.90;;;15.54;81.97;100329.25;5041771;28;20663;-62
2022/06/15 03:52:26;;;;;;;466.42;445.33;;;15.20;99.90;;;15.48;82.91;100332.00;5031983;28;20222;-63
2022/06/15 03:54:54;;;;;;;479.30;457.63;;;15.30;99.90;;;15.51;81.36;100326.63;5040373;28;20202;-63
2022/06/15 03:57:23;;;;;;;476.90;455.58;;;15.30;99.90;;;15.38;82.50;100327.69;5054159;28;20224;-63
2022/06/15 03:59:53;;;;;;;462.27;441.98;;;15.20;99.90;;;15.32;82.85;100322.41;5044961;28;20208;-63
2022/06/15 04:02:40;;;;;;;474.00;452.52;;;15.20;99.90;;;15.41;82.24;100332.09;5026652;28;20226;-63
2022/06/15 04:05:44;;;;;;;475.33;453.90;;;15.10;99.90;;;15.39;82.50;100345.44;5015277;28;20214;-63
2022/06/15 04:08:35;;;;;;;478.58;456.85;;;15.10;99.90;;;15.41;83.31;100356.94;5033775;28;20669;-63
2022/06/15 04:14:37;;;;;;;496.65;473.85;;;15.10;99.90;;;15.35;83.69;100357.03;5016236;28;20695;-63
2022/06/15 04:17:31;;;;;;;537.28;510.92;;;15.10;99.90;;;15.38;82.22;100357.88;5013167;28;20221;-63
2022/06/15 04:20:32;;;;;;;533.45;508.63;;;15.10;99.90;;;15.45;82.56;100371.13;5015492;28;20201;-62
2022/06/15 04:23:15;;;;;;;490.17;468.25;;;15.10;99.90;;;15.43;82.71;100367.59;5044585;28;20233;-63
2022/06/15 04:25:58;;;;;;;486.50;464.00;;;15.10;99.90;;;15.42;83.13;100382.69;4995847;28;20205;-63
2022/06/15 04:28:44;;;;;;;505.63;481.98;;;15.10;99.90;;;15.44;84.40;100407.53;5004582;28;20225;-63
2022/06/15 04:31:24;;;;;;;517.55;493.40;;;15.10;99.90;;;15.46;84.03;100412.88;5020733;28;20226;-62
2022/06/15 04:33:55;;;;;;;528.05;504.30;;;15.10;99.90;;;15.59;83.94;100435.84;5011159;28;20218;-63
2022/06/15 04:36:28;;;;;;;538.08;513.47;;;15.20;99.90;;;15.56;84.08;100439.41;5019583;28;20220;-62
2022/06/15 04:39:03;;;;;;;557.08;529.60;;;15.20;99.90;;;15.57;84.08;100442.94;5035921;28;20205;-63
2022/06/15 04:41:37;;;;;;;553.53;526.92;;;15.20;99.90;;;15.59;83.38;100438.50;5030201;28;20233;-63
2022/06/15 04:44:08;;;;;;;566.45;538.75;;;15.20;99.90;;;15.62;84.41;100439.38;5016014;28;20792;-62
2022/06/15 04:46:38;;;;;;;565.85;538.70;;;15.20;99.90;;;15.65;83.87;100452.69;5040920;28;20209;-63
2022/06/15 04:49:08;;;;;;;568.92;541.33;;;15.30;99.90;;;15.75;83.75;100456.13;5017048;28;20205;-62
2022/06/15 04:51:45;;;;;;;572.83;545.35;;;15.30;99.90;;;15.91;83.11;100470.16;5018575;28;20222;-63
2022/06/15 04:54:13;;;;;;;564.60;538.03;;;15.40;99.90;;;15.94;83.19;100475.44;5020031;28;20221;-62
2022/06/15 04:56:46;;;;;;;567.58;540.65;;;15.50;99.90;;;16.02;82.79;100489.59;4990222;28;20210;-62
2022/06/15 04:59:17;;;;;;;564.53;537.85;;;15.50;99.90;;;16.12;82.43;100496.56;5038882;28;20215;-63
2022/06/15 05:01:46;;;;;;;542.67;517.53;;;15.50;99.90;;;16.23;82.02;100502.66;5004983;28;20571;-63
2022/06/15 05:04:16;;;;;;;522.45;499.02;;;15.60;99.90;;;16.32;82.28;100506.97;5031589;28;20221;-63
2022/06/15 05:06:44;;;;;;;540.40;515.17;;;15.70;99.90;;;16.40;81.82;100514.88;5019483;28;20198;-63
2022/06/15 05:09:14;;;;;;;528.95;504.73;;;15.80;99.90;;;16.46;82.83;100529.03;5032934;28;20208;-62
2022/06/15 05:11:54;;;;;;;516.95;494.20;;;15.90;99.90;;;16.48;82.15;100521.88;5016337;28;20226;-62
2022/06/15 05:14:23;;;;;;;518.00;494.02;;;16.00;99.90;;;16.62;81.33;100530.59;5030260;28;20206;-63
2022/06/15 05:16:52;;;;;;;513.38;489.83;;;16.00;99.90;;;16.70;82.36;100545.66;5028079;28;20209;-63
2022/06/15 05:19:29;;;;;;;518.10;494.35;;;16.10;99.90;;;16.74;82.10;100556.25;4994415;28;20205;-62
2022/06/15 05:21:58;;;;;;;497.73;475.05;;;16.20;99.90;;;16.95;80.94;100564.00;5004625;28;20224;-62
2022/06/15 05:24:27;;;;;;;472.13;451.38;;;16.30;99.90;;;16.91;81.50;100558.72;5017478;28;20241;-62
2022/06/15 05:26:59;;;;;;;447.13;427.45;;;16.40;99.90;;;17.06;80.21;100552.25;5013173;28;20214;-63
2022/06/15 05:29:27;;;;;;;382.60;366.13;;;16.50;99.90;;;17.18;79.61;100552.94;5031891;28;20571;-63
2022/06/15 05:32:08;;;;;;;366.38;350.60;;;16.60;99.90;;;17.23;80.42;100555.53;5008346;28;20241;-63
2022/06/15 05:34:36;;;;;;;361.95;346.42;;;16.70;99.90;;;17.41;78.93;100552.56;5043794;28;20211;-63
2022/06/15 05:37:05;;;;;;;352.75;337.55;;;16.80;99.90;;;17.49;79.21;100556.00;4999919;28;20206;-63
2022/06/15 05:39:37;;;;;;;362.65;345.55;;;16.90;99.90;;;17.59;79.32;100551.38;5006988;28;20669;-62
2022/06/15 05:42:05;;;;;;;367.90;351.75;;;17.00;99.90;;;17.63;79.01;100553.06;5002649;28;20233;-63
2022/06/15 05:47:11;;;;;;;366.15;350.80;;;17.10;99.90;;;17.86;76.13;100521.47;5018631;28;20198;-62
2022/06/15 05:49:51;;;;;;;374.90;358.83;;;17.30;99.90;;;17.99;76.18;100513.19;5019626;28;20193;-63
2022/06/15 05:52:27;;;;;;;385.50;368.70;;;17.40;99.90;;;18.03;76.29;100510.41;5023595;28;20221;-62
2022/06/15 05:54:58;;;;;;;386.23;369.25;;;17.50;99.90;;;18.15;76.62;100512.84;5051461;28;20206;-63
2022/06/15 05:57:26;;;;;;;397.73;379.83;;;17.60;99.90;;;18.32;75.50;100511.66;5035401;28;20207;-63
2022/06/15 05:59:58;;;;;;;412.73;394.38;;;17.70;99.90;;;18.29;75.71;100496.53;5015762;28;20203;-63
2022/06/15 06:02:27;;;;;;;401.45;383.85;;;17.80;99.90;;;18.38;75.93;100496.31;4990682;28;20623;-63
2022/06/15 06:04:55;;;;;;;383.40;366.38;;;17.80;99.90;;;18.64;77.50;100541.31;5033978;28;20221;-63
2022/06/15 06:07:23;;;;;;;394.23;376.58;;;18.00;99.90;;;18.69;77.24;100534.06;4983379;28;20214;-63
2022/06/15 06:09:51;;;;;;;398.77;380.92;;;18.10;99.90;;;18.86;75.50;100521.16;5019535;28;20205;-63
2022/06/15 06:12:19;;;;;;;374.88;357.55;;;18.20;99.90;;;19.19;75.27;100540.00;5036299;28;20229;-63
2022/06/15 06:14:50;;;;;;;343.05;327.10;;;18.40;99.90;;;19.23;74.31;100505.97;5035625;28;20218;-63
2022/06/15 06:17:18;;;;;;;347.50;332.20;;;18.50;99.90;;;19.56;74.99;100528.41;5035738;28;20206;-63
2022/06/15 06:19:46;;;;;;;365.02;348.65;;;18.70;99.90;;;19.58;74.71;100513.16;5047060;28;20205;-62
2022/06/15 06:22:14;;;;;;;378.45;360.90;;;18.90;99.90;;;19.88;75.41;100532.91;5021586;28;20232;-63
2022/06/15 06:24:49;;;;;;;388.65;371.20;;;19.20;99.90;;;19.75;75.17;100508.22;5045810;28;20214;-63
2022/06/15 06:27:17;;;;;;;377.40;360.38;;;19.30;99.90;;;19.85;75.15;100509.72;5032476;28;20221;-64
2022/06/15 06:29:45;;;;;;;373.92;357.73;;;19.40;99.90;;;19.93;73.50;100464.75;5037733;28;20208;-63
2022/06/15 06:32:25;;;;;;;378.00;361.08;;;19.50;99.90;;;20.05;74.76;100485.88;5015057;28;20241;-63
2022/06/15 06:34:59;;;;;;;396.55;378.60;;;19.70;99.90;;;20.26;73.89;100484.38;5040495;28;20203;-63
2022/06/15 06:37:33;;;;;;;388.73;371.35;;;19.80;99.90;;;20.11;72.94;100442.75;5012287;28;20217;-65
2022/06/15 06:40:02;;;;;;;379.90;362.52;;;19.80;99.90;;;20.62;74.73;100494.94;5024907;28;20198;-64
2022/06/15 06:42:30;;;;;;;374.52;356.58;;;19.90;99.90;;;20.85;72.79;100483.50;5033177;28;20232;-64
2022/06/15 06:44:58;;;;;;;404.33;384.98;;;20.20;99.90;;;20.99;72.59;100465.09;5058433;28;20229;-64
2022/06/15 06:47:26;;;;;;;432.95;412.02;;;20.50;99.90;;;20.96;72.31;100449.97;5032272;28;20242;-63
2022/06/15 06:49:54;;;;;;;466.38;444.35;;;20.60;99.90;;;21.18;72.15;100443.84;4993585;28;20652;-63
2022/06/15 06:52:22;;;;;;;474.98;452.15;;;20.70;99.90;;;21.44;72.03;100459.13;5007585;28;20230;-65
2022/06/15 06:54:50;;;;;;;515.83;490.90;;;20.90;99.90;;;21.63;71.29;100436.88;5013591;28;20203;-63
2022/06/15 06:57:18;;;;;;;550.03;523.20;;;21.20;99.90;;;21.54;70.10;100394.16;5030799;28;20209;-64
2022/06/15 06:59:46;;;;;;;610.47;580.92;;;21.30;99.90;;;21.59;69.58;100384.09;5003136;28;20202;-64
2022/06/15 07:02:14;;;;;;;646.17;613.10;;;21.40;99.90;;;21.61;69.50;100367.91;5023725;28;20674;-64
2022/06/15 07:04:42;;;;;;;646.60;614.08;;;21.60;99.90;;;22.00;69.54;100381.66;5015190;28;20218;-63
2022/06/15 07:07:10;;;;;;;636.17;604.15;;;21.80;99.90;;;22.46;67.96;100377.19;5017307;28;20203;-64
2022/06/15 07:09:38;;;;;;;615.58;583.70;;;22.10;99.90;;;21.96;68.70;100310.88;5036721;28;20677;-64
2022/06/15 07:12:10;;;;;;;566.05;538.95;;;22.10;99.90;;;22.30;68.21;100342.78;5021048;28;20229;-63
2022/06/15 07:14:42;;;;;;;610.90;579.33;;;22.30;99.90;;;22.66;69.47;100385.34;5018913;28;20678;-65
2022/06/15 07:17:10;;;;;;;593.42;563.15;;;22.50;99.90;;;21.90;68.02;100256.41;5020632;28;20215;-64
2022/06/15 07:19:43;;;;;;;613.50;582.05;;;22.20;99.90;;;22.58;67.91;100326.38;4994187;28;20207;-65
2022/06/15 07:22:11;;;;;;;632.33;598.95;;;22.20;99.90;;;22.92;67.51;100311.47;5032345;28;20238;-64
2022/06/15 07:24:40;;;;;;;677.22;641.28;;;22.60;99.90;;;23.30;67.83;100345.72;5018182;28;20218;-64
2022/06/15 07:27:07;;;;;;;732.40;692.72;;;23.10;99.90;;;22.52;66.47;100208.03;5024318;28;20582;-65
2022/06/15 07:29:36;;;;;;;684.85;648.40;;;23.10;99.90;;;22.58;68.42;100234.72;5002653;28;20202;-64
2022/06/15 07:32:05;;;;;;;743.75;703.83;;;22.70;99.90;;;23.19;68.71;100318.34;5004183;28;20213;-64
2022/06/15 07:34:34;;;;;;;656.67;621.58;;;23.20;99.90;;;22.76;67.07;100230.34;5036154;28;20677;-64
2022/06/15 07:37:02;;;;;;;670.67;634.65;;;23.20;99.90;;;22.97;67.54;100259.09;5048225;28;20587;-64
2022/06/15 07:39:29;;;;;;;787.92;745.95;;;23.20;99.90;;;22.94;65.91;100220.59;5019585;28;20216;-63
2022/06/15 07:42:04;;;;;;;901.13;852.05;;;23.40;99.90;;;23.46;69.42;100312.66;5055038;28;20221;-64
2022/06/15 07:44:34;;;;;;;866.97;819.83;;;23.50;99.90;;;23.23;66.51;100252.50;5031037;28;20241;-64
2022/06/15 07:49:56;;;;;;;706.08;667.38;;;23.30;99.90;;;23.52;65.69;100245.78;5039760;28;20221;-65
2022/06/15 07:52:50;;;;;;;713.53;674.63;;;23.90;99.90;;;23.94;66.30;100274.41;5036645;28;20292;-63
2022/06/15 07:55:27;;;;;;;811.42;766.65;;;24.60;99.90;;;24.48;67.26;100305.97;5000112;28;20202;-65
2022/06/15 07:57:56;;;;;;;845.83;798.67;;;24.50;99.90;;;23.57;67.70;100192.47;5037778;28;20574;-64
2022/06/15 08:00:24;;;;;;;794.60;749.92;;;24.70;99.90;;;24.19;66.33;100247.06;4989097;28;20217;-64
2022/06/15 08:02:52;;;;;;;835.15;787.60;;;25.00;99.90;;;24.12;65.38;100205.09;5009557;28;20233;-64
2022/06/15 08:05:21;;;;;;;965.17;911.78;;;24.90;99.90;;;24.23;66.81;100229.75;5018557;28;20224;-64
2022/06/15 08:07:49;;;;;;;826.00;779.35;;;25.00;99.90;;;23.91;65.96;100170.09;5034860;28;20202;-64
2022/06/15 08:10:22;;;;;;;1029.18;971.55;;;25.40;99.90;;;25.12;64.65;100262.09;5019268;28;20681;-64
2022/06/15 08:12:51;;;;;;;1004.35;948.17;;;;;;;24.72;64.70;100174.06;5031345;28;20226;-65
2022/06/15 08:15:19;;;;;;;831.97;784.53;;;25.40;99.90;;;24.01;66.63;100118.31;5016944;28;20212;-65
2022/06/15 08:17:53;;;;;;;1091.43;999.90;;;25.70;99.90;;;25.70;65.16;100280.59;5020218;28;20212;-64
2022/06/15 08:20:23;;;;;;;1099.25;999.90;;;;;;;25.28;66.39;100186.38;5038359;28;20208;-65
2022/06/15 08:22:56;;;;;;;1098.97;999.90;;;25.90;99.90;;;24.82;67.30;100145.56;5038221;28;20233;-65
2022/06/15 08:25:36;;;;;;;1102.93;999.90;;;25.90;99.90;;;24.31;65.77;100051.91;5022053;28;20206;-64
2022/06/15 08:28:06;;;;;;;1097.53;999.90;;;25.90;99.90;;;24.93;66.51;100147.69;4999381;28;20781;-64
2022/06/15 08:30:36;;;;;;;1104.18;999.90;;;;;;;24.40;66.36;100074.84;5025050;28;20208;-64
2022/06/15 08:33:07;;;;;;;1110.15;999.90;;;26.20;99.90;;;25.48;67.03;100209.63;5036761;28;20217;-64
2022/06/15 08:35:37;;;;;;;1115.53;999.90;;;27.00;99.90;;;26.74;65.08;100258.31;5013043;28;20210;-65
2022/06/15 08:38:09;;;;;;;1126.50;999.90;;;27.10;99.90;;;25.65;64.83;100101.25;5024950;28;20642;-64
2022/06/15 08:41:07;;;;;;;1124.55;999.90;;;27.20;99.90;;;25.97;65.33;100145.41;5014441;28;20209;-64
2022/06/15 08:43:59;;;;;;;1128.32;999.90;;;27.90;99.90;;;26.93;63.32;100154.97;5027238;28;20204;-64
2022/06/15 08:47:18;;;;;;;1134.22;999.90;;;28.80;99.90;;;27.98;60.54;100123.69;5020966;28;20217;-64
2022/06/15 08:49:46;;;;;;;1129.18;999.90;;;;;;;25.34;63.68;99912.63;5055560;28;20220;-64
2022/06/15 08:52:25;;;;;;;1128.22;999.90;;;26.90;99.90;;;25.57;64.87;99991.59;5035423;28;20242;-64
2022/06/15 08:55:03;;;;;;;1129.80;999.90;;;27.70;99.90;;;26.97;64.18;100102.22;5008991;28;20201;-64
2022/06/15 08:58:03;;;;;;;1135.25;999.90;;;28.50;99.90;;;26.21;62.19;99966.03;5034842;28;20212;-64
2022/06/15 09:00:35;;;;;;;1135.88;999.90;;;28.50;99.90;;;25.79;64.18;99929.78;5004484;28;20205;-64
2022/06/15 09:03:12;;;;;;;1142.30;999.90;;;27.90;99.90;;;25.97;63.98;99960.28;5010934;28;20220;-65
2022/06/15 09:05:52;;;;;;;866.13;814.10;;;27.80;99.90;;;26.31;63.47;99989.75;5059343;28;20594;-64
2022/06/15 09:08:44;;;;;;;1070.88;999.90;;;28.30;99.90;;;27.31;63.22;100072.00;5034275;28;20201;-64
2022/06/15 09:11:47;;;;;;;1149.80;999.90;;;28.70;99.90;;;27.12;64.03;100051.53;5000539;28;20704;-64
2022/06/15 09:14:41;;;;;;;1108.63;999.90;;;29.30;99.90;;;27.78;63.08;100084.28;5024628;28;20201;-63
2022/06/15 09:17:18;;;;;;;1167.68;999.90;;;30.00;99.90;;;28.22;60.38;100005.09;5015650;28;20197;-63
2022/06/15 09:19:55;;;;;;;1165.63;999.90;;;30.10;99.90;;;27.51;60.51;99890.53;5016910;28;20196;-64
2022/06/15 09:22:38;;;;;;;1167.43;999.90;;;29.10;99.90;;;26.25;63.25;99826.63;5033448;28;20221;-64
2022/06/15 09:25:33;;;;;;;1169.25;999.90;;;28.90;99.90;;;28.32;62.14;100059.72;5034249;28;20217;-64
2022/06/15 09:28:15;;;;;;;1170.05;999.90;;;28.90;99.90;;;27.16;61.90;99899.22;5002268;28;20205;-64
2022/06/15 09:30:44;;;;;;;1118.40;999.90;;;;;;;27.23;62.22;99921.41;5033965;28;20212;-64
2022/06/15 09:33:28;;;;;;;1107.40;999.90;;;29.10;99.90;;;28.26;60.31;99997.59;5035118;28;20719;-64
2022/06/15 09:36:08;;;;;;;1185.78;999.90;;;30.30;99.90;;;29.35;58.55;100006.88;5017746;28;20197;-64
2022/06/15 09:38:38;;;;;;;1181.05;999.90;;;31.00;99.90;;;28.82;59.48;99935.50;5002027;28;20204;-63
2022/06/15 09:41:34;;;;;;;1187.95;999.90;;;31.40;99.90;;;29.20;57.47;99903.56;5034858;28;20220;-64
2022/06/15 09:44:44;;;;;;;1189.07;999.90;;;31.40;98.10;;;28.60;62.09;99895.41;5038147;28;20201;-64
2022/06/15 09:47:36;;;;;;;1190.00;999.90;;;30.80;99.60;;;28.50;59.30;99831.78;5036242;28;20244;-64
2022/06/15 09:50:46;;;;;;;1189.80;999.90;;;31.40;98.50;;;28.40;57.36;99793.50;5054353;28;20209;-64
2022/06/15 09:53:33;;;;;;;1197.25;999.90;;;;;;;29.62;58.63;99926.66;5020860;28;20228;-64
2022/06/15 09:56:08;;;;;;;1202.35;999.90;;;32.50;99.90;;;29.86;58.44;99915.69;5053692;28;20209;-64
2022/06/15 09:58:51;;;;;;;1202.53;999.90;;;;;;;29.36;57.74;99824.28;5023319;28;20681;-64
2022/06/15 10:01:25;;;;;;;1205.70;999.90;;;32.60;95.90;;;29.43;57.72;99833.72;5026030;28;20229;-65
2022/06/15 10:03:56;;;;;;;1214.90;999.90;;;32.80;94.30;;;30.17;57.44;99886.03;5005177;28;20212;-64
2022/06/15 10:06:51;;;;;;;1216.78;999.90;;;31.90;92.60;;;28.93;60.34;99781.34;5017966;28;20228;-64
2022/06/15 10:09:27;;;;;;;1210.68;999.90;;;31.70;94.10;;;28.64;58.89;99737.28;5015843;28;20205;-64
2022/06/15 10:15:21;;;;;;;1210.55;999.90;;;32.30;95.90;;;30.44;57.04;99870.13;5037435;28;20200;-64
2022/06/15 10:17:55;;;;;;;1215.70;999.90;;;33.50;95.50;;;32.20;56.26;99899.69;5032669;28;20197;-64
2022/06/15 10:20:36;;;;;;;1224.72;999.90;;;33.40;89.80;;;29.46;56.73;99593.78;5044417;28;20561;-64
2022/06/15 10:23:33;;;;;;;1221.18;999.90;;;32.90;94.90;;;30.42;55.94;99722.06;5009225;28;20232;-64
2022/06/15 10:26:02;;;;;;;1223.78;999.90;;;;;;;30.91;56.85;99774.34;5030746;28;20221;-64
2022/06/15 10:28:41;;;;;;;1194.78;999.90;;;33.60;92.10;;;30.64;56.27;99712.94;5003423;28;20223;-64
2022/06/15 10:31:16;;;;;;;1152.57;999.90;;;33.70;90.30;;;31.13;56.41;99750.53;5038713;28;20228;-65
2022/06/15 10:33:48;;;;;;;1208.25;999.90;;;34.10;90.60;;;30.48;55.79;99611.53;5039859;28;20209;-64
2022/06/15 10:36:32;;;;;;;1191.75;999.90;;;32.30;88.00;;;29.77;57.76;99662.94;5030452;28;20196;-64
2022/06/15 10:39:25;;;;;;;1156.72;999.90;;;33.20;92.10;;;32.26;54.62;99797.94;5013068;28;20205;-64
2022/06/15 10:42:00;;;;;;;1227.15;999.90;;;34.10;88.70;;;30.98;52.96;99565.31;5034187;28;20229;-64
2022/06/15 10:44:36;;;;;;;1233.10;999.90;;;33.30;85.00;;;30.54;55.73;99598.22;5028675;28;20615;-64